sensor_id;sensor_type;location;lat;lon;timestamp;pressure;altitude;pressure_sealevel;temperature;humidity
73063;BME280;61230;46.328;19.972;2023-02-01T00:01:11;100892.50;;;3.99;82.64
73063;BME280;61230;46.328;19.972;2023-02-01T00:03:39;100892.50;;;3.99;83.36
73063;BME280;61230;46.328;19.972;2023-02-01T00:06:07;100893.53;;;3.96;82.54
73063;BME280;61230;46.328;19.972;2023-02-01T00:08:34;100902.34;;;3.94;83.09
73063;BME280;61230;46.328;19.972;2023-02-01T00:11:08;100907.38;;;3.97;83.60
73063;BME280;61230;46.328;19.972;2023-02-01T00:13:37;100900.00;;;3.89;82.95
73063;BME280;61230;46.328;19.972;2023-02-01T00:18:42;100907.63;;;3.92;82.52
73063;BME280;61230;46.328;19.972;2023-02-01T00:21:11;100914.59;;;3.92;81.88
73063;BME280;61230;46.328;19.972;2023-02-01T00:23:39;100917.31;;;3.90;83.33
73063;BME280;61230;46.328;19.972;2023-02-01T00:26:15;100917.12;;;3.93;82.45
73063;BME280;61230;46.328;19.972;2023-02-01T00:28:44;100907.28;;;3.98;81.63
73063;BME280;61230;46.328;19.972;2023-02-01T00:31:12;100887.91;;;3.88;80.95
73063;BME280;61230;46.328;19.972;2023-02-01T00:33:39;100903.78;;;3.99;80.29
73063;BME280;61230;46.328;19.972;2023-02-01T00:36:08;100896.03;;;3.98;80.28
73063;BME280;61230;46.328;19.972;2023-02-01T00:38:37;100900.50;;;3.96;80.13
73063;BME280;61230;46.328;19.972;2023-02-01T00:41:16;100889.06;;;3.98;79.97
73063;BME280;61230;46.328;19.972;2023-02-01T00:43:45;100895.00;;;4.00;79.21
73063;BME280;61230;46.328;19.972;2023-02-01T00:46:14;100892.41;;;4.00;79.19
73063;BME280;61230;46.328;19.972;2023-02-01T00:48:43;100887.03;;;4.03;78.89
73063;BME280;61230;46.328;19.972;2023-02-01T00:51:13;100873.28;;;4.01;78.95
73063;BME280;61230;46.328;19.972;2023-02-01T00:53:41;100867.31;;;3.99;79.23
73063;BME280;61230;46.328;19.972;2023-02-01T00:56:09;100867.50;;;3.96;79.60
73063;BME280;61230;46.328;19.972;2023-02-01T00:58:38;100865.81;;;3.95;78.88
73063;BME280;61230;46.328;19.972;2023-02-01T01:03:39;100865.06;;;3.93;79.16
73063;BME280;61230;46.328;19.972;2023-02-01T01:06:13;100874.56;;;3.94;79.73
73063;BME280;61230;46.328;19.972;2023-02-01T01:08:41;100872.13;;;3.91;78.37
73063;BME280;61230;46.328;19.972;2023-02-01T01:11:16;100858.53;;;3.86;78.12
73063;BME280;61230;46.328;19.972;2023-02-01T01:13:46;100871.47;;;3.88;78.77
73063;BME280;61230;46.328;19.972;2023-02-01T01:16:15;100864.31;;;3.91;78.51
73063;BME280;61230;46.328;19.972;2023-02-01T01:18:43;100872.38;;;3.87;78.10
73063;BME280;61230;46.328;19.972;2023-02-01T01:21:12;100869.88;;;3.85;77.09
73063;BME280;61230;46.328;19.972;2023-02-01T01:23:41;100871.63;;;3.85;77.93
73063;BME280;61230;46.328;19.972;2023-02-01T01:26:14;100873.31;;;3.86;77.69
73063;BME280;61230;46.328;19.972;2023-02-01T01:28:42;100868.13;;;3.86;76.83
73063;BME280;61230;46.328;19.972;2023-02-01T01:31:11;100863.72;;;3.86;76.93
73063;BME280;61230;46.328;19.972;2023-02-01T01:33:39;100862.06;;;3.85;77.18
73063;BME280;61230;46.328;19.972;2023-02-01T01:36:09;100859.28;;;3.88;76.40
73063;BME280;61230;46.328;19.972;2023-02-01T01:38:42;100862.97;;;3.84;76.83
73063;BME280;61230;46.328;19.972;2023-02-01T01:41:14;100853.47;;;3.83;76.65
73063;BME280;61230;46.328;19.972;2023-02-01T01:43:56;100843.06;;;3.83;76.54
73063;BME280;61230;46.328;19.972;2023-02-01T01:46:27;100835.53;;;3.79;76.10
73063;BME280;61230;46.328;19.972;2023-02-01T01:49:10;100846.69;;;3.81;76.73
73063;BME280;61230;46.328;19.972;2023-02-01T01:51:44;100844.03;;;3.82;77.26
73063;BME280;61230;46.328;19.972;2023-02-01T01:54:21;100844.03;;;3.82;76.47
73063;BME280;61230;46.328;19.972;2023-02-01T01:56:53;100820.94;;;3.76;76.17
73063;BME280;61230;46.328;19.972;2023-02-01T01:59:25;100823.03;;;3.85;76.36
73063;BME280;61230;46.328;19.972;2023-02-01T02:01:54;100823.87;;;3.86;76.37
73063;BME280;61230;46.328;19.972;2023-02-01T02:04:24;100824.78;;;3.85;77.17
73063;BME280;61230;46.328;19.972;2023-02-01T02:06:57;100818.47;;;3.89;76.91
73063;BME280;61230;46.328;19.972;2023-02-01T02:09:28;100819.31;;;3.89;76.65
73063;BME280;61230;46.328;19.972;2023-02-01T02:11:56;100825.53;;;3.87;77.17
73063;BME280;61230;46.328;19.972;2023-02-01T02:14:25;100834.28;;;3.86;77.84
73063;BME280;61230;46.328;19.972;2023-02-01T02:20:25;100825.81;;;3.82;78.27
73063;BME280;61230;46.328;19.972;2023-02-01T02:36:53;100795.41;;;3.83;77.96
73063;BME280;61230;46.328;19.972;2023-02-01T02:39:45;100803.22;;;3.83;77.12
73063;BME280;61230;46.328;19.972;2023-02-01T02:42:20;100806.81;;;3.80;77.81
73063;BME280;61230;46.328;19.972;2023-02-01T02:48:19;100806.63;;;3.83;78.12
73063;BME280;61230;46.328;19.972;2023-02-01T02:54:04;100795.12;;;3.87;77.55
73063;BME280;61230;46.328;19.972;2023-02-01T02:56:53;100792.53;;;3.87;76.91
73063;BME280;61230;46.328;19.972;2023-02-01T02:59:43;100787.06;;;3.92;77.38
73063;BME280;61230;46.328;19.972;2023-02-01T03:02:32;100773.22;;;3.91;76.75
73063;BME280;61230;46.328;19.972;2023-02-01T03:05:20;100768.00;;;3.91;76.20
73063;BME280;61230;46.328;19.972;2023-02-01T03:13:26;100768.53;;;3.82;76.58
73063;BME280;61230;46.328;19.972;2023-02-01T03:16:09;100764.44;;;3.78;76.21
73063;BME280;61230;46.328;19.972;2023-02-01T03:19:21;100774.50;;;3.84;75.49
73063;BME280;61230;46.328;19.972;2023-02-01T03:22:08;100766.63;;;3.86;76.18
73063;BME280;61230;46.328;19.972;2023-02-01T03:24:45;100745.56;;;3.75;75.61
73063;BME280;61230;46.328;19.972;2023-02-01T03:27:35;100759.44;;;3.89;74.20
73063;BME280;61230;46.328;19.972;2023-02-01T03:30:09;100772.44;;;3.89;75.45
73063;BME280;61230;46.328;19.972;2023-02-01T03:32:40;100762.53;;;3.96;73.71
73063;BME280;61230;46.328;19.972;2023-02-01T03:38:37;100767.84;;;3.94;73.16
73063;BME280;61230;46.328;19.972;2023-02-01T03:46:51;100758.84;;;3.70;73.78
73063;BME280;61230;46.328;19.972;2023-02-01T03:49:28;100759.75;;;3.69;73.23
73063;BME280;61230;46.328;19.972;2023-02-01T03:51:58;100763.31;;;3.68;73.21
73063;BME280;61230;46.328;19.972;2023-02-01T03:54:28;100773.78;;;3.67;72.80
73063;BME280;61230;46.328;19.972;2023-02-01T03:56:58;100774.12;;;3.61;72.76
73063;BME280;61230;46.328;19.972;2023-02-01T03:59:27;100770.91;;;3.57;73.81
73063;BME280;61230;46.328;19.972;2023-02-01T04:01:55;100757.22;;;3.54;73.51
73063;BME280;61230;46.328;19.972;2023-02-01T04:04:23;100755.69;;;3.49;73.41
73063;BME280;61230;46.328;19.972;2023-02-01T04:06:50;100764.53;;;3.47;73.40
73063;BME280;61230;46.328;19.972;2023-02-01T04:09:19;100780.13;;;3.47;73.13
73063;BME280;61230;46.328;19.972;2023-02-01T04:11:46;100778.38;;;3.47;72.97
73063;BME280;61230;46.328;19.972;2023-02-01T04:14:14;100786.28;;;3.46;72.69
73063;BME280;61230;46.328;19.972;2023-02-01T04:16:41;100778.53;;;3.44;72.68
73063;BME280;61230;46.328;19.972;2023-02-01T04:19:09;100773.16;;;3.47;72.98
73063;BME280;61230;46.328;19.972;2023-02-01T04:21:37;100776.44;;;3.51;72.30
73063;BME280;61230;46.328;19.972;2023-02-01T04:24:06;100781.53;;;3.53;72.68
73063;BME280;61230;46.328;19.972;2023-02-01T04:26:34;100778.78;;;3.56;71.92
73063;BME280;61230;46.328;19.972;2023-02-01T04:29:03;100782.78;;;3.61;71.93
73063;BME280;61230;46.328;19.972;2023-02-01T04:31:30;100775.81;;;3.62;71.84
73063;BME280;61230;46.328;19.972;2023-02-01T04:33:58;100781.75;;;3.64;72.16
73063;BME280;61230;46.328;19.972;2023-02-01T04:36:26;100782.44;;;3.67;72.24
73063;BME280;61230;46.328;19.972;2023-02-01T04:38:53;100776.16;;;3.71;72.61
73063;BME280;61230;46.328;19.972;2023-02-01T04:41:21;100773.38;;;3.74;72.07
73063;BME280;61230;46.328;19.972;2023-02-01T04:43:50;100754.56;;;3.69;72.34
73063;BME280;61230;46.328;19.972;2023-02-01T04:46:19;100769.37;;;3.83;72.19
73063;BME280;61230;46.328;19.972;2023-02-01T04:48:47;100775.81;;;3.91;71.43
73063;BME280;61230;46.328;19.972;2023-02-01T04:51:14;100786.88;;;3.95;71.45
73063;BME280;61230;46.328;19.972;2023-02-01T04:53:42;100790.31;;;3.95;71.64
73063;BME280;61230;46.328;19.972;2023-02-01T04:56:10;100792.06;;;3.95;72.00
73063;BME280;61230;46.328;19.972;2023-02-01T04:58:37;100792.06;;;3.95;71.73
73063;BME280;61230;46.328;19.972;2023-02-01T05:01:06;100797.22;;;3.96;71.20
73063;BME280;61230;46.328;19.972;2023-02-01T05:03:34;100805.25;;;3.92;71.53
73063;BME280;61230;46.328;19.972;2023-02-01T05:06:02;100800.25;;;3.89;71.35
73063;BME280;61230;46.328;19.972;2023-02-01T05:08:32;100808.25;;;3.86;71.73
73063;BME280;61230;46.328;19.972;2023-02-01T05:11:00;100820.94;;;3.76;72.14
73063;BME280;61230;46.328;19.972;2023-02-01T05:13:30;100811.78;;;3.69;71.93
73063;BME280;61230;46.328;19.972;2023-02-01T05:16:16;100808.44;;;3.67;72.09
73063;BME280;61230;46.328;19.972;2023-02-01T05:18:44;100794.19;;;3.59;72.05
73063;BME280;61230;46.328;19.972;2023-02-01T05:21:11;100806.81;;;3.51;72.95
73063;BME280;61230;46.328;19.972;2023-02-01T05:23:39;100813.19;;;3.45;73.20
73063;BME280;61230;46.328;19.972;2023-02-01T05:26:25;100809.91;;;3.41;73.34
73063;BME280;61230;46.328;19.972;2023-02-01T05:28:53;100799.44;;;3.27;73.58
73063;BME280;61230;46.328;19.972;2023-02-01T05:31:21;100813.13;;;3.31;73.47
73063;BME280;61230;46.328;19.972;2023-02-01T05:33:49;100804.75;;;3.26;73.52
73063;BME280;61230;46.328;19.972;2023-02-01T05:36:17;100813.78;;;3.19;74.19
73063;BME280;61230;46.328;19.972;2023-02-01T05:38:45;100816.72;;;3.13;74.35
73063;BME280;61230;46.328;19.972;2023-02-01T05:41:12;100821.50;;;3.05;74.45
73063;BME280;61230;46.328;19.972;2023-02-01T05:43:40;100825.81;;;3.06;74.30
73063;BME280;61230;46.328;19.972;2023-02-01T05:46:07;100823.69;;;2.97;74.89
73063;BME280;61230;46.328;19.972;2023-02-01T05:48:39;100834.41;;;2.90;75.23
73063;BME280;61230;46.328;19.972;2023-02-01T05:51:08;100834.25;;;2.94;74.68
73063;BME280;61230;46.328;19.972;2023-02-01T05:53:35;100838.00;;;2.88;75.08
73063;BME280;61230;46.328;19.972;2023-02-01T05:56:03;100838.13;;;2.86;74.74
73063;BME280;61230;46.328;19.972;2023-02-01T05:58:31;100829.09;;;2.76;75.02
73063;BME280;61230;46.328;19.972;2023-02-01T06:01:00;100844.63;;;2.78;75.62
73063;BME280;61230;46.328;19.972;2023-02-01T06:03:28;100855.09;;;2.76;75.33
73063;BME280;61230;46.328;19.972;2023-02-01T06:05:56;100840.75;;;2.69;75.39
73063;BME280;61230;46.328;19.972;2023-02-01T06:08:23;100844.16;;;2.70;75.21
73063;BME280;61230;46.328;19.972;2023-02-01T06:11:00;100844.44;;;2.65;75.37
73063;BME280;61230;46.328;19.972;2023-02-01T06:13:28;100832.22;;;2.50;75.72
73063;BME280;61230;46.328;19.972;2023-02-01T06:15:56;100851.78;;;2.57;76.11
73063;BME280;61230;46.328;19.972;2023-02-01T06:18:25;100863.87;;;2.58;75.89
73063;BME280;61230;46.328;19.972;2023-02-01T06:20:58;100861.31;;;2.57;75.77
73063;BME280;61230;46.328;19.972;2023-02-01T06:23:28;100860.31;;;2.59;76.01
73063;BME280;61230;46.328;19.972;2023-02-01T06:26:05;100865.38;;;2.62;75.87
73063;BME280;61230;46.328;19.972;2023-02-01T06:28:33;100871.16;;;2.67;75.97
73063;BME280;61230;46.328;19.972;2023-02-01T06:31:05;100868.84;;;2.78;75.65
73063;BME280;61230;46.328;19.972;2023-02-01T06:33:36;100870.09;;;2.87;75.45
73063;BME280;61230;46.328;19.972;2023-02-01T06:36:06;100867.13;;;2.95;74.88
73063;BME280;61230;46.328;19.972;2023-02-01T06:38:35;100867.87;;;2.97;75.01
73063;BME280;61230;46.328;19.972;2023-02-01T06:41:03;100841.19;;;2.93;74.67
73063;BME280;61230;46.328;19.972;2023-02-01T06:43:31;100847.81;;;2.99;74.66
73063;BME280;61230;46.328;19.972;2023-02-01T06:46:05;100861.09;;;3.10;74.50
73063;BME280;61230;46.328;19.972;2023-02-01T06:48:34;100853.81;;;3.16;74.18
73063;BME280;61230;46.328;19.972;2023-02-01T06:51:04;100853.81;;;3.16;74.08
73063;BME280;61230;46.328;19.972;2023-02-01T06:53:32;100847.19;;;3.26;73.22
73063;BME280;61230;46.328;19.972;2023-02-01T06:56:02;100842.66;;;3.30;73.05
73063;BME280;61230;46.328;19.972;2023-02-01T06:58:32;100864.81;;;3.37;73.58
73063;BME280;61230;46.328;19.972;2023-02-01T07:01:08;100861.69;;;3.46;73.52
73063;BME280;61230;46.328;19.972;2023-02-01T07:03:37;100863.94;;;3.52;72.46
73063;BME280;61230;46.328;19.972;2023-02-01T07:06:07;100867.03;;;3.59;72.45
73063;BME280;61230;46.328;19.972;2023-02-01T07:08:37;100870.31;;;3.62;72.38
73063;BME280;61230;46.328;19.972;2023-02-01T07:11:07;100871.00;;;3.66;71.70
73063;BME280;61230;46.328;19.972;2023-02-01T07:13:35;100863.03;;;3.69;72.10
73063;BME280;61230;46.328;19.972;2023-02-01T07:16:06;100867.03;;;3.74;72.13
73063;BME280;61230;46.328;19.972;2023-02-01T07:18:34;100871.13;;;3.78;72.65
73063;BME280;61230;46.328;19.972;2023-02-01T07:21:02;100867.09;;;3.88;71.74
73063;BME280;61230;46.328;19.972;2023-02-01T07:23:30;100871.59;;;4.00;70.79
73063;BME280;61230;46.328;19.972;2023-02-01T07:26:01;100880.56;;;4.11;71.11
73063;BME280;61230;46.328;19.972;2023-02-01T07:28:32;100889.50;;;4.21;70.79
73063;BME280;61230;46.328;19.972;2023-02-01T07:33:32;100879.97;;;4.35;70.11
73063;BME280;61230;46.328;19.972;2023-02-01T07:36:03;100869.47;;;4.37;69.98
73063;BME280;61230;46.328;19.972;2023-02-01T07:38:31;100875.91;;;4.45;70.71
73063;BME280;61230;46.328;19.972;2023-02-01T07:41:04;100883.25;;;4.53;69.94
73063;BME280;61230;46.328;19.972;2023-02-01T07:43:32;100885.41;;;4.60;70.14
73063;BME280;61230;46.328;19.972;2023-02-01T07:46:04;100883.28;;;4.67;69.82
73063;BME280;61230;46.328;19.972;2023-02-01T07:48:32;100886.19;;;4.77;70.48
73063;BME280;61230;46.328;19.972;2023-02-01T07:51:10;100885.59;;;4.86;70.74
73063;BME280;61230;46.328;19.972;2023-02-01T07:53:38;100901.72;;;5.06;71.38
73063;BME280;61230;46.328;19.972;2023-02-01T07:56:13;100900.78;;;5.21;69.93
73063;BME280;61230;46.328;19.972;2023-02-01T07:58:42;100893.38;;;5.42;75.06
73063;BME280;61230;46.328;19.972;2023-02-01T08:01:17;100890.22;;;5.37;68.30
73063;BME280;61230;46.328;19.972;2023-02-01T08:03:53;100884.56;;;5.31;68.33
73063;BME280;61230;46.328;19.972;2023-02-01T08:06:22;100880.75;;;5.22;67.71
73063;BME280;61230;46.328;19.972;2023-02-01T08:08:51;100877.00;;;5.26;68.06
73063;BME280;61230;46.328;19.972;2023-02-01T08:11:20;100877.94;;;5.25;68.32
73063;BME280;61230;46.328;19.972;2023-02-01T08:13:48;100867.31;;;5.28;67.73
73063;BME280;61230;46.328;19.972;2023-02-01T08:16:17;100877.53;;;5.31;67.89
73063;BME280;61230;46.328;19.972;2023-02-01T08:18:45;100875.69;;;5.33;68.14
73063;BME280;61230;46.328;19.972;2023-02-01T08:21:19;100902.41;;;5.37;68.38
73063;BME280;61230;46.328;19.972;2023-02-01T08:23:48;100891.91;;;5.38;68.70
73063;BME280;61230;46.328;19.972;2023-02-01T08:26:18;100887.22;;;5.43;68.25
73063;BME280;61230;46.328;19.972;2023-02-01T08:28:54;100882.84;;;5.44;68.64
73063;BME280;61230;46.328;19.972;2023-02-01T08:31:24;100891.22;;;5.49;68.28
73063;BME280;61230;46.328;19.972;2023-02-01T08:33:57;100900.25;;;5.57;68.09
73063;BME280;61230;46.328;19.972;2023-02-01T08:36:28;100899.34;;;5.71;67.98
73063;BME280;61230;46.328;19.972;2023-02-01T08:38:56;100899.13;;;5.88;67.22
73063;BME280;61230;46.328;19.972;2023-02-01T08:41:26;100892.59;;;5.95;67.23
73063;BME280;61230;46.328;19.972;2023-02-01T08:43:54;100898.66;;;5.96;67.57
73063;BME280;61230;46.328;19.972;2023-02-01T08:46:22;100890.56;;;6.13;66.45
73063;BME280;61230;46.328;19.972;2023-02-01T08:48:50;100883.47;;;6.27;66.43
73063;BME280;61230;46.328;19.972;2023-02-01T08:51:20;100882.03;;;6.49;66.11
73063;BME280;61230;46.328;19.972;2023-02-01T08:53:49;100891.69;;;6.61;65.45
73063;BME280;61230;46.328;19.972;2023-02-01T08:56:17;100884.78;;;6.72;65.78
73063;BME280;61230;46.328;19.972;2023-02-01T08:58:46;100883.50;;;6.90;64.41
73063;BME280;61230;46.328;19.972;2023-02-01T09:01:15;100898.88;;;7.08;63.79
73063;BME280;61230;46.328;19.972;2023-02-01T09:03:44;100887.28;;;7.48;62.44
73063;BME280;61230;46.328;19.972;2023-02-01T09:06:14;100893.50;;;7.58;61.49
73063;BME280;61230;46.328;19.972;2023-02-01T09:08:42;100894.63;;;7.30;61.78
73063;BME280;61230;46.328;19.972;2023-02-01T09:11:15;100899.28;;;7.14;62.86
73063;BME280;61230;46.328;19.972;2023-02-01T09:13:43;100900.44;;;7.23;62.51
73063;BME280;61230;46.328;19.972;2023-02-01T09:16:11;100901.41;;;7.09;62.52
73063;BME280;61230;46.328;19.972;2023-02-01T09:18:40;100894.94;;;6.89;62.02
73063;BME280;61230;46.328;19.972;2023-02-01T09:21:23;100919.63;;;6.98;62.87
73063;BME280;61230;46.328;19.972;2023-02-01T09:23:51;100897.00;;;6.97;62.25
73063;BME280;61230;46.328;19.972;2023-02-01T09:26:19;100911.87;;;7.09;62.47
73063;BME280;61230;46.328;19.972;2023-02-01T09:28:56;100902.03;;;7.00;62.59
73063;BME280;61230;46.328;19.972;2023-02-01T09:31:24;100923.25;;;7.08;61.38
73063;BME280;61230;46.328;19.972;2023-02-01T09:33:52;100915.84;;;7.02;61.97
73063;BME280;61230;46.328;19.972;2023-02-01T09:36:20;100913.22;;;7.02;62.35
73063;BME280;61230;46.328;19.972;2023-02-01T09:38:48;100918.13;;;7.07;61.51
73063;BME280;61230;46.328;19.972;2023-02-01T09:41:35;100918.34;;;7.04;61.20
73063;BME280;61230;46.328;19.972;2023-02-01T09:47:02;100914.06;;;7.03;62.45
73063;BME280;61230;46.328;19.972;2023-02-01T09:49:32;100922.00;;;7.01;62.69
73063;BME280;61230;46.328;19.972;2023-02-01T09:52:02;100919.38;;;7.01;61.83
73063;BME280;61230;46.328;19.972;2023-02-01T09:54:42;100905.03;;;7.07;62.12
73063;BME280;61230;46.328;19.972;2023-02-01T09:57:19;100896.50;;;6.92;62.77
73063;BME280;61230;46.328;19.972;2023-02-01T10:00:01;100899.62;;;6.97;62.79
73063;BME280;61230;46.328;19.972;2023-02-01T10:02:39;100893.47;;;6.98;63.13
73063;BME280;61230;46.328;19.972;2023-02-01T10:05:12;100886.41;;;6.99;62.40
73063;BME280;61230;46.328;19.972;2023-02-01T10:10:44;100860.31;;;7.22;62.42
73063;BME280;61230;46.328;19.972;2023-02-01T10:15:56;100836.97;;;7.56;60.72
73063;BME280;61230;46.328;19.972;2023-02-01T10:21:35;100830.03;;;8.02;60.88
73063;BME280;61230;46.328;19.972;2023-02-01T10:24:16;100832.06;;;8.33;59.14
73063;BME280;61230;46.328;19.972;2023-02-01T10:26:51;100831.69;;;8.49;57.56
73063;BME280;61230;46.328;19.972;2023-02-01T10:29:26;100841.03;;;8.64;58.01
73063;BME280;61230;46.328;19.972;2023-02-01T10:31:58;100824.69;;;8.49;58.05
73063;BME280;61230;46.328;19.972;2023-02-01T10:34:27;100829.53;;;8.32;59.17
73063;BME280;61230;46.328;19.972;2023-02-01T10:37:00;100839.94;;;8.09;58.66
73063;BME280;61230;46.328;19.972;2023-02-01T10:39:28;100835.53;;;8.10;59.65
73063;BME280;61230;46.328;19.972;2023-02-01T10:41:56;100829.09;;;8.03;59.42
73063;BME280;61230;46.328;19.972;2023-02-01T10:44:26;100828.00;;;7.94;59.26
73063;BME280;61230;46.328;19.972;2023-02-01T10:46:55;100819.50;;;7.91;60.29
73063;BME280;61230;46.328;19.972;2023-02-01T10:49:45;100821.56;;;7.98;60.85
73063;BME280;61230;46.328;19.972;2023-02-01T10:54:48;100820.00;;;7.96;59.86
73063;BME280;61230;46.328;19.972;2023-02-01T10:57:25;100824.75;;;7.91;59.63
73063;BME280;61230;46.328;19.972;2023-02-01T10:59:55;100824.31;;;7.97;60.20
73063;BME280;61230;46.328;19.972;2023-02-01T11:02:33;100807.38;;;8.01;59.26
73063;BME280;61230;46.328;19.972;2023-02-01T11:05:07;100807.75;;;7.96;60.60
73063;BME280;61230;46.328;19.972;2023-02-01T11:07:46;100806.31;;;8.03;60.03
73063;BME280;61230;46.328;19.972;2023-02-01T11:10:40;100812.87;;;8.09;60.09
73063;BME280;61230;46.328;19.972;2023-02-01T11:13:17;100801.47;;;8.10;59.71
73063;BME280;61230;46.328;19.972;2023-02-01T11:15:46;100796.47;;;8.18;60.34
73063;BME280;61230;46.328;19.972;2023-02-01T11:18:19;100790.44;;;8.29;60.59
73063;BME280;61230;46.328;19.972;2023-02-01T11:20:47;100780.97;;;8.15;60.41
73063;BME280;61230;46.328;19.972;2023-02-01T11:23:19;100781.28;;;8.34;60.16
73063;BME280;61230;46.328;19.972;2023-02-01T11:26:09;100761.03;;;8.47;59.20
73063;BME280;61230;46.328;19.972;2023-02-01T11:28:40;100761.63;;;8.51;59.58
73063;BME280;61230;46.328;19.972;2023-02-01T11:31:11;100759.56;;;8.99;59.87
73063;BME280;61230;46.328;19.972;2023-02-01T11:33:47;100746.06;;;9.03;58.98
73063;BME280;61230;46.328;19.972;2023-02-01T11:36:19;100736.69;;;8.79;60.53
73063;BME280;61230;46.328;19.972;2023-02-01T11:39:38;100731.44;;;8.79;59.46
73063;BME280;61230;46.328;19.972;2023-02-01T11:41:56;100736.94;;;8.64;59.66
73063;BME280;61230;46.328;19.972;2023-02-01T11:44:35;100729.78;;;8.66;59.32
73063;BME280;61230;46.328;19.972;2023-02-01T11:50:00;100709.94;;;8.96;59.40
73063;BME280;61230;46.328;19.972;2023-02-01T11:55:53;100708.59;;;9.12;59.07
73063;BME280;61230;46.328;19.972;2023-02-01T12:12:25;100677.72;;;9.05;58.06
73063;BME280;61230;46.328;19.972;2023-02-01T12:18:02;100672.22;;;8.97;58.02
73063;BME280;61230;46.328;19.972;2023-02-01T12:39:31;100653.19;;;8.84;57.15
73063;BME280;61230;46.328;19.972;2023-02-01T12:42:09;100636.06;;;8.80;57.54
73063;BME280;61230;46.328;19.972;2023-02-01T12:44:57;100643.38;;;8.54;57.88
73063;BME280;61230;46.328;19.972;2023-02-01T12:47:32;100640.97;;;8.62;58.12
73063;BME280;61230;46.328;19.972;2023-02-01T12:52:50;100622.50;;;8.52;58.60
73063;BME280;61230;46.328;19.972;2023-02-01T12:55:46;100630.88;;;8.46;57.68
73063;BME280;61230;46.328;19.972;2023-02-01T12:58:26;100618.59;;;8.47;58.64
73063;BME280;61230;46.328;19.972;2023-02-01T13:01:05;100620.63;;;8.43;58.89
73063;BME280;61230;46.328;19.972;2023-02-01T13:06:26;100618.97;;;8.42;59.13
73063;BME280;61230;46.328;19.972;2023-02-01T13:09:04;100620.59;;;8.54;59.88
73063;BME280;61230;46.328;19.972;2023-02-01T13:11:38;100619.19;;;8.50;59.92
73063;BME280;61230;46.328;19.972;2023-02-01T13:16:46;100623.37;;;8.42;59.93
73063;BME280;61230;46.328;19.972;2023-02-01T13:21:53;100631.72;;;8.25;61.17
73063;BME280;61230;46.328;19.972;2023-02-01T13:24:33;100641.13;;;8.38;60.91
73063;BME280;61230;46.328;19.972;2023-02-01T13:27:02;100632.91;;;8.32;60.56
73063;BME280;61230;46.328;19.972;2023-02-01T13:29:32;100644.13;;;8.34;60.20
73063;BME280;61230;46.328;19.972;2023-02-01T13:32:15;100645.53;;;8.27;59.71
73063;BME280;61230;46.328;19.972;2023-02-01T13:35:17;100633.28;;;8.27;59.87
73063;BME280;61230;46.328;19.972;2023-02-01T13:43:19;100640.19;;;8.17;60.35
73063;BME280;61230;46.328;19.972;2023-02-01T13:45:53;100643.03;;;8.14;60.92
73063;BME280;61230;46.328;19.972;2023-02-01T13:48:39;100640.87;;;8.19;61.13
73063;BME280;61230;46.328;19.972;2023-02-01T13:51:08;100646.75;;;8.12;61.68
73063;BME280;61230;46.328;19.972;2023-02-01T13:53:37;100658.63;;;7.93;64.55
73063;BME280;61230;46.328;19.972;2023-02-01T13:56:17;100661.22;;;7.60;69.14
73063;BME280;61230;46.328;19.972;2023-02-01T13:58:47;100667.72;;;7.43;72.43
73063;BME280;61230;46.328;19.972;2023-02-01T14:04:05;100689.22;;;6.88;78.02
73063;BME280;61230;46.328;19.972;2023-02-01T14:06:53;100684.72;;;6.90;80.42
73063;BME280;61230;46.328;19.972;2023-02-01T14:09:34;100680.66;;;6.86;79.52
73063;BME280;61230;46.328;19.972;2023-02-01T14:12:44;100675.53;;;6.85;81.40
73063;BME280;61230;46.328;19.972;2023-02-01T14:15:25;100685.44;;;6.69;82.70
73063;BME280;61230;46.328;19.972;2023-02-01T14:17:54;100687.84;;;6.72;82.89
73063;BME280;61230;46.328;19.972;2023-02-01T14:20:43;100696.59;;;6.71;82.67
73063;BME280;61230;46.328;19.972;2023-02-01T14:23:15;100691.28;;;6.72;81.52
73063;BME280;61230;46.328;19.972;2023-02-01T14:25:44;100700.06;;;6.71;81.06
73063;BME280;61230;46.328;19.972;2023-02-01T14:28:33;100715.53;;;6.74;81.13
73063;BME280;61230;46.328;19.972;2023-02-01T14:31:22;100712.94;;;6.62;80.88
73063;BME280;61230;46.328;19.972;2023-02-01T14:33:59;100696.81;;;6.68;80.72
73063;BME280;61230;46.328;19.972;2023-02-01T14:36:40;100700.16;;;6.70;82.16
73063;BME280;61230;46.328;19.972;2023-02-01T14:39:23;100710.44;;;6.60;83.60
73063;BME280;61230;46.328;19.972;2023-02-01T14:41:59;100717.66;;;6.57;84.15
73063;BME280;61230;46.328;19.972;2023-02-01T14:44:32;100720.41;;;6.55;86.28
73063;BME280;61230;46.328;19.972;2023-02-01T14:49:42;100691.69;;;6.30;82.62
73063;BME280;61230;46.328;19.972;2023-02-01T14:52:17;100694.31;;;6.30;80.14
73063;BME280;61230;46.328;19.972;2023-02-01T14:54:51;100685.34;;;6.21;81.90
73063;BME280;61230;46.328;19.972;2023-02-01T14:57:24;100673.88;;;5.99;81.62
73063;BME280;61230;46.328;19.972;2023-02-01T15:00:27;100686.19;;;6.09;80.34
73063;BME280;61230;46.328;19.972;2023-02-01T15:02:55;100682.94;;;6.06;80.98
73063;BME280;61230;46.328;19.972;2023-02-01T15:05:30;100698.94;;;6.01;82.32
73063;BME280;61230;46.328;19.972;2023-02-01T15:08:25;100711.03;;;6.02;82.83
73063;BME280;61230;46.328;19.972;2023-02-01T15:10:55;100725.84;;;6.02;83.39
73063;BME280;61230;46.328;19.972;2023-02-01T15:13:26;100744.34;;;5.86;84.53
73063;BME280;61230;46.328;19.972;2023-02-01T15:16:02;100759.66;;;5.78;85.76
73063;BME280;61230;46.328;19.972;2023-02-01T15:18:31;100759.16;;;5.73;82.35
73063;BME280;61230;46.328;19.972;2023-02-01T15:21:01;100758.78;;;5.65;84.16
73063;BME280;61230;46.328;19.972;2023-02-01T15:23:49;100791.31;;;5.47;87.28